createdAt,value
2019-06-26T00:01:50.978Z,102070.41
2019-06-26T00:04:26.110Z,102074.08
2019-06-26T00:07:03.600Z,102084.16
2019-06-26T00:09:38.500Z,102078.47
2019-06-26T00:12:10.750Z,102089.73
2019-06-26T00:14:45.843Z,102088.53
2019-06-26T00:17:16.526Z,102087.65
2019-06-26T00:19:48.193Z,102085.24
2019-06-26T00:22:24.068Z,102087.63
2019-06-26T00:24:54.738Z,102082.36
2019-06-26T00:27:25.737Z,102088.78
2019-06-26T00:29:59.777Z,102090.61
2019-06-26T00:32:32.901Z,102080.53
2019-06-26T00:35:08.958Z,102085.37
2019-06-26T00:37:39.842Z,102088.95
2019-06-26T00:40:13.987Z,102094.14
2019-06-26T00:42:44.883Z,102094.85
2019-06-26T00:45:22.610Z,102105.32
2019-06-26T00:47:53.655Z,102107.48
2019-06-26T00:50:25.768Z,102105.16
2019-06-26T00:52:58.758Z,102113.51
2019-06-26T00:55:31.306Z,102113.77
2019-06-26T00:58:04.126Z,102120.27
2019-06-26T01:00:40.370Z,102113.84
2019-06-26T01:03:14.172Z,102111.34
2019-06-26T01:05:46.583Z,102105.78
2019-06-26T01:08:18.499Z,102113.75
2019-06-26T01:10:52.219Z,102112.64
2019-06-26T01:13:26.787Z,102120.39
2019-06-26T01:15:58.955Z,102123.73
2019-06-26T01:18:29.981Z,102123.55
2019-06-26T01:21:00.794Z,102131.04
2019-06-26T01:23:40.514Z,102126.38
2019-06-26T01:26:11.168Z,102125.61
2019-06-26T01:28:41.924Z,102125.08
2019-06-26T01:31:14.267Z,102122.23
2019-06-26T01:33:45.096Z,102129.24
2019-06-26T01:36:15.797Z,102127.68
2019-06-26T01:38:52.566Z,102124.17
2019-06-26T01:41:24.039Z,102136.05
2019-06-26T01:44:13.354Z,102140.58
2019-06-26T01:46:36.394Z,102149.67
2019-06-26T01:49:14.697Z,102149.88
2019-06-26T01:51:48.776Z,102154.50
2019-06-26T01:54:24.198Z,102153.91
2019-06-26T01:56:57.927Z,102163.41
2019-06-26T01:59:29.935Z,102168.30
2019-06-26T02:02:11.730Z,102165.20
2019-06-26T02:04:53.373Z,102163.69
2019-06-26T02:07:20.760Z,102174.70
2019-06-26T02:09:54.216Z,102178.13
2019-06-26T02:13:12.663Z,102178.47
2019-06-26T02:14:57.914Z,102180.69
2019-06-26T02:17:35.368Z,102180.47
2019-06-26T02:20:07.750Z,102179.98
2019-06-26T02:22:44.009Z,102189.48
2019-06-26T02:25:21.068Z,102193.41
2019-06-26T02:27:53.238Z,102199.84
2019-06-26T02:30:24.433Z,102209.45
2019-06-26T02:32:58.257Z,102212.49
2019-06-26T02:35:30.887Z,102210.97
2019-06-26T02:38:07.524Z,102207.36
2019-06-26T02:40:43.062Z,102212.59
2019-06-26T02:43:14.192Z,102225.44
2019-06-26T02:45:45.153Z,102220.76
2019-06-26T02:48:22.251Z,102228.30
2019-06-26T02:50:53.195Z,102234.45
2019-06-26T02:53:26.949Z,102235.51
2019-06-26T02:56:01.489Z,102236.31
2019-06-26T02:58:33.991Z,102246.28
2019-06-26T03:01:07.354Z,102253.55
2019-06-26T03:03:40.764Z,102252.47
2019-06-26T03:06:14.485Z,102248.95
2019-06-26T03:08:45.345Z,102250.98
2019-06-26T03:11:17.816Z,102261.36
2019-06-26T03:13:50.613Z,102262.17
2019-06-26T03:16:27.934Z,102262.45
2019-06-26T03:19:00.141Z,102278.95
2019-06-26T03:21:38.739Z,102285.56
2019-06-26T03:24:18.484Z,102283.73
2019-06-26T03:26:49.351Z,102285.31
2019-06-26T03:29:24.704Z,102288.98
2019-06-26T03:31:58.958Z,102288.79
2019-06-26T03:34:31.080Z,102293.38
2019-06-26T03:37:01.726Z,102296.60
2019-06-26T03:39:32.317Z,102310.13
2019-06-26T03:42:02.765Z,102309.22
2019-06-26T03:44:34.545Z,102307.84
2019-06-26T03:47:05.090Z,102305.15
2019-06-26T03:49:35.701Z,102310.52
2019-06-26T03:52:10.820Z,102313.88
2019-06-26T03:54:41.246Z,102316.99
2019-06-26T03:57:11.843Z,102314.21
2019-06-26T03:59:42.301Z,102317.09
2019-06-26T04:02:13.547Z,102328.41
2019-06-26T04:05:04.296Z,102335.57
2019-06-26T04:07:36.627Z,102335.33
2019-06-26T04:10:10.174Z,102332.59
2019-06-26T04:12:46.598Z,102334.56
2019-06-26T04:15:17.427Z,102342.64
2019-06-26T04:17:51.994Z,102347.16
2019-06-26T04:20:26.889Z,102345.95
2019-06-26T04:22:59.765Z,102342.11
2019-06-26T04:25:37.880Z,102337.41
2019-06-26T04:28:08.072Z,102337.41
2019-06-26T04:30:39.611Z,102342.86
2019-06-26T04:33:10.127Z,102347.52
2019-06-26T04:35:42.142Z,102352.30
2019-06-26T04:38:12.972Z,102358.02
2019-06-26T04:40:44.301Z,102369.39
2019-06-26T04:43:15.329Z,102377.00
2019-06-26T04:45:57.688Z,102375.20
2019-06-26T04:48:17.966Z,102370.33
2019-06-26T04:50:50.832Z,102371.29
2019-06-26T04:53:21.192Z,102382.98
2019-06-26T04:55:53.360Z,102377.69
2019-06-26T04:58:32.713Z,102388.61
2019-06-26T05:01:05.731Z,102389.56
2019-06-26T05:03:40.847Z,102387.20
2019-06-26T05:06:11.810Z,102389.55
2019-06-26T05:08:44.575Z,102393.47
2019-06-26T05:11:18.628Z,102402.37
2019-06-26T05:13:55.597Z,102409.08
2019-06-26T05:16:31.493Z,102410.14
2019-06-26T05:19:02.236Z,102410.13
2019-06-26T05:21:33.016Z,102418.81
2019-06-26T05:24:03.326Z,102418.49
2019-06-26T05:26:36.062Z,102425.50
2019-06-26T05:29:09.090Z,102421.66
2019-06-26T05:31:39.589Z,102432.45
2019-06-26T05:34:13.736Z,102441.55
2019-06-26T05:36:47.126Z,102439.41
2019-06-26T05:39:24.120Z,102440.02
2019-06-26T05:41:54.939Z,102445.08
2019-06-26T05:44:27.390Z,102447.91
2019-06-26T05:47:00.833Z,102453.23
2019-06-26T05:49:35.325Z,102451.35
2019-06-26T05:52:07.691Z,102451.88
2019-06-26T05:54:38.508Z,102453.27
2019-06-26T05:57:09.021Z,102452.91
2019-06-26T05:59:40.182Z,102462.45
2019-06-26T06:02:13.171Z,102465.66
2019-06-26T06:04:45.928Z,102474.58
2019-06-26T06:07:16.401Z,102477.86
2019-06-26T06:09:47.252Z,102486.12
2019-06-26T06:12:17.820Z,102489.25
2019-06-26T06:14:48.186Z,102493.34
2019-06-26T06:17:20.557Z,102487.11
2019-06-26T06:19:50.778Z,102493.12
2019-06-26T06:22:20.956Z,102493.47
2019-06-26T06:24:51.149Z,102497.86
2019-06-26T06:27:21.553Z,102507.16
2019-06-26T06:29:51.781Z,102503.72
2019-06-26T06:32:21.944Z,102511.97
2019-06-26T06:34:52.155Z,102518.32
2019-06-26T06:37:22.305Z,102526.62
2019-06-26T06:39:52.494Z,102526.47
2019-06-26T06:42:22.695Z,102538.56
2019-06-26T06:44:53.371Z,102553.26
2019-06-26T06:47:26.469Z,102558.32
2019-06-26T06:49:56.637Z,102553.89
2019-06-26T06:52:26.802Z,102560.38
2019-06-26T06:54:58.364Z,102572.36
2019-06-26T06:57:28.579Z,102569.23
2019-06-26T06:59:58.794Z,102576.84
2019-06-26T07:02:28.999Z,102587.80
2019-06-26T07:04:59.234Z,102591.49
2019-06-26T07:07:29.408Z,102589.22
2019-06-26T07:09:59.637Z,102602.50
2019-06-26T07:12:29.913Z,102605.13
2019-06-26T07:15:00.125Z,102611.86
2019-06-26T07:17:32.519Z,102607.88
2019-06-26T07:20:02.863Z,102610.86
2019-06-26T07:22:34.300Z,102623.19
2019-06-26T07:25:07.126Z,102616.99
2019-06-26T07:27:38.615Z,102619.76
2019-06-26T07:30:09.110Z,102624.03
2019-06-26T07:32:39.838Z,102625.41
2019-06-26T07:35:10.138Z,102627.60
2019-06-26T07:37:42.050Z,102633.82
2019-06-26T07:40:12.817Z,102626.21
2019-06-26T07:42:42.983Z,102637.85
2019-06-26T07:45:15.432Z,102645.20
2019-06-26T07:47:45.944Z,102653.98
2019-06-26T07:50:16.518Z,102656.32
2019-06-26T07:52:46.855Z,102647.32
2019-06-26T07:55:17.123Z,102648.97
2019-06-26T07:57:47.348Z,102661.44
2019-06-26T08:00:17.917Z,102674.86
2019-06-26T08:02:48.257Z,102680.00
2019-06-26T08:05:20.165Z,102683.58
2019-06-26T08:07:50.306Z,102689.22
2019-06-26T08:10:21.119Z,102693.09
2019-06-26T08:12:53.104Z,102691.66
2019-06-26T08:15:23.399Z,102690.11
2019-06-26T08:18:00.757Z,102698.16
2019-06-26T08:20:25.518Z,102697.30
2019-06-26T08:22:55.676Z,102706.01
2019-06-26T08:25:25.851Z,102718.84
2019-06-26T08:27:56.096Z,102720.98
2019-06-26T08:30:27.613Z,102728.80
2019-06-26T08:32:57.929Z,102732.97
2019-06-26T08:35:28.081Z,102740.17
2019-06-26T08:38:09.824Z,102751.08
2019-06-26T08:40:30.238Z,102746.54
2019-06-26T08:43:00.472Z,102750.38
2019-06-26T08:45:30.651Z,102747.80
2019-06-26T08:48:16.886Z,102751.47
2019-06-26T08:50:34.393Z,102751.89
2019-06-26T08:53:04.660Z,102751.74
2019-06-26T08:55:34.771Z,102753.59
2019-06-26T08:58:05.249Z,102759.73
2019-06-26T09:00:36.566Z,102762.64
2019-06-26T09:03:08.279Z,102762.17
2019-06-26T09:05:47.925Z,102771.84
2019-06-26T09:08:10.930Z,102764.09
2019-06-26T09:10:44.909Z,102767.96
2019-06-26T09:13:14.055Z,102759.27
2019-06-26T09:15:44.281Z,102759.80
2019-06-26T09:18:14.365Z,102751.07
2019-06-26T09:20:44.734Z,102757.53
2019-06-26T09:23:15.837Z,102757.65
2019-06-26T09:25:45.947Z,102754.22
2019-06-26T09:28:17.281Z,102750.28
2019-06-26T09:30:47.479Z,102744.44
2019-06-26T09:33:17.698Z,102754.97
2019-06-26T09:35:47.907Z,102757.70
2019-06-26T09:38:18.170Z,102754.75
2019-06-26T09:40:48.363Z,102745.66
2019-06-26T09:43:20.209Z,102749.19
2019-06-26T09:45:50.643Z,102750.81
2019-06-26T09:48:20.891Z,102747.45
2019-06-26T09:50:51.139Z,102746.64
2019-06-26T09:53:21.394Z,102756.27
2019-06-26T09:55:51.586Z,102765.03
2019-06-26T09:58:21.734Z,102770.11
2019-06-26T10:00:51.940Z,102770.55
2019-06-26T10:03:22.159Z,102774.80
2019-06-26T10:05:52.261Z,102776.14
2019-06-26T10:08:22.460Z,102773.22
2019-06-26T10:10:52.663Z,102779.73
2019-06-26T10:13:22.707Z,102795.48
2019-06-26T10:15:52.986Z,102803.22
2019-06-26T10:18:23.180Z,102799.37
2019-06-26T10:20:53.425Z,102791.95
2019-06-26T10:23:23.624Z,102774.86
2019-06-26T10:25:53.833Z,102766.81
2019-06-26T10:28:24.194Z,102768.37
2019-06-26T10:30:54.336Z,102773.96
2019-06-26T10:33:24.653Z,102774.17
2019-06-26T10:35:55.822Z,102773.73
2019-06-26T10:38:27.903Z,102776.03
2019-06-26T10:40:58.123Z,102768.73
2019-06-26T10:43:28.365Z,102784.86
2019-06-26T10:45:58.853Z,102788.77
2019-06-26T10:48:29.175Z,102786.78
2019-06-26T10:51:01.832Z,102790.60
2019-06-26T10:53:32.027Z,102785.92
2019-06-26T10:56:02.272Z,102792.13
2019-06-26T10:58:32.502Z,102797.42
2019-06-26T11:01:02.877Z,102788.55
2019-06-26T11:03:33.154Z,102789.67
2019-06-26T11:06:03.506Z,102789.48
2019-06-26T11:08:36.241Z,102799.29
2019-06-26T11:11:06.413Z,102803.60
2019-06-26T11:13:36.786Z,102796.69
2019-06-26T11:16:08.100Z,102789.91
2019-06-26T11:18:38.489Z,102781.10
2019-06-26T11:21:08.618Z,102793.50
2019-06-26T11:23:38.788Z,102794.21
2019-06-26T11:26:09.025Z,102814.35
2019-06-26T11:28:39.190Z,102810.62
2019-06-26T11:31:09.339Z,102809.63
2019-06-26T11:33:39.480Z,102818.44
2019-06-26T11:36:09.568Z,102825.38
2019-06-26T11:38:40.872Z,102823.49
2019-06-26T11:41:12.202Z,102833.36
2019-06-26T11:43:42.479Z,102831.56
2019-06-26T11:46:12.614Z,102826.73
2019-06-26T11:48:42.767Z,102832.53
2019-06-26T11:51:12.905Z,102831.61
2019-06-26T11:53:43.129Z,102845.28
2019-06-26T11:56:13.763Z,102843.53
2019-06-26T11:58:44.158Z,102842.98
2019-06-26T12:01:14.387Z,102843.08
2019-06-26T12:03:44.623Z,102848.21
2019-06-26T12:06:18.881Z,102847.63
2019-06-26T12:08:46.750Z,102856.02
2019-06-26T12:11:17.061Z,102856.59
2019-06-26T12:13:47.270Z,102855.25
2019-06-26T12:16:19.871Z,102854.08
2019-06-26T12:18:54.201Z,102852.80
2019-06-26T12:21:29.404Z,102849.22
2019-06-26T12:23:59.715Z,102844.52
2019-06-26T12:26:32.155Z,102854.61
2019-06-26T12:29:06.868Z,102851.29
2019-06-26T12:31:41.293Z,102860.46
2019-06-26T12:34:15.637Z,102865.27
2019-06-26T12:37:08.446Z,102876.72
2019-06-26T12:39:48.464Z,102873.77
2019-06-26T12:42:26.584Z,102874.20
2019-06-26T12:44:57.578Z,102889.97
2019-06-26T12:47:37.094Z,102885.85
2019-06-26T12:50:11.785Z,102893.16
2019-06-26T12:52:59.523Z,102887.26
2019-06-26T12:55:43.514Z,102890.24
2019-06-26T12:58:19.753Z,102893.05
2019-06-26T13:00:50.604Z,102892.30
2019-06-26T13:03:25.111Z,102889.89
2019-06-26T13:05:59.199Z,102890.22
2019-06-26T13:08:30.096Z,102888.33
2019-06-26T13:11:01.036Z,102880.08
2019-06-26T13:13:39.813Z,102891.00
2019-06-26T13:16:12.990Z,102878.23
2019-06-26T13:18:51.396Z,102877.02
2019-06-26T13:21:30.162Z,102891.22
2019-06-26T13:24:01.375Z,102899.64
2019-06-26T13:26:37.113Z,102894.11
2019-06-26T13:29:14.934Z,102889.39
2019-06-26T13:31:52.451Z,102887.19
2019-06-26T13:34:33.852Z,102884.82
2019-06-26T13:37:07.503Z,102892.50
2019-06-26T13:39:49.335Z,102869.63
2019-06-26T13:42:25.356Z,102862.00
2019-06-26T13:44:59.571Z,102864.18
2019-06-26T13:47:44.643Z,102865.94
2019-06-26T13:50:17.383Z,102872.86
2019-06-26T13:52:48.280Z,102872.44
2019-06-26T13:56:03.426Z,102867.99
2019-06-26T13:58:35.836Z,102875.62
2019-06-26T14:01:09.751Z,102881.85
2019-06-26T14:03:44.089Z,102888.70
2019-06-26T14:06:24.091Z,102882.08
2019-06-26T14:08:57.812Z,102866.34
2019-06-26T14:11:32.355Z,102873.03
2019-06-26T14:14:05.314Z,102879.36
2019-06-26T14:16:35.540Z,102879.80
2019-06-26T14:19:05.672Z,102883.67
2019-06-26T14:21:36.137Z,102877.86
2019-06-26T14:24:06.342Z,102869.80
2019-06-26T14:26:36.537Z,102878.39
2019-06-26T14:29:20.002Z,102879.67
2019-06-26T14:31:38.716Z,102882.45
2019-06-26T14:34:08.967Z,102858.53
2019-06-26T14:36:39.288Z,102870.75
2019-06-26T14:39:11.258Z,102879.20
2019-06-26T14:41:52.147Z,102874.45
2019-06-26T14:44:22.444Z,102871.63
2019-06-26T14:46:52.706Z,102873.77
2019-06-26T14:49:22.974Z,102874.37
2019-06-26T14:51:54.398Z,102872.75
2019-06-26T14:54:24.692Z,102870.63
2019-06-26T14:57:14.047Z,102871.12
2019-06-26T14:59:44.481Z,102880.80
2019-06-26T15:02:14.979Z,102883.87
2019-06-26T15:04:46.247Z,102897.93
2019-06-26T15:07:19.112Z,102887.65
2019-06-26T15:09:52.332Z,102895.87
2019-06-26T15:12:22.925Z,102899.70
2019-06-26T15:14:56.185Z,102903.49
2019-06-26T15:17:26.683Z,102904.22
2019-06-26T15:19:57.310Z,102905.22
2019-06-26T15:22:27.531Z,102910.11
2019-06-26T15:24:57.821Z,102900.83
2019-06-26T15:33:30.225Z,102896.52
2019-06-26T15:43:12.506Z,102892.03
2019-06-26T15:46:52.906Z,102891.59
2019-06-26T15:49:57.529Z,102888.73
2019-06-26T15:53:39.981Z,102883.09
2019-06-26T15:56:44.304Z,102885.62
2019-06-26T16:00:18.799Z,102889.25
2019-06-26T16:03:26.522Z,102890.23
2019-06-26T16:06:22.784Z,102889.52
2019-06-26T16:09:59.021Z,102897.07
2019-06-26T16:13:04.778Z,102901.95
2019-06-26T16:15:45.443Z,102888.73
2019-06-26T16:18:48.082Z,102902.52
2019-06-26T16:31:43.339Z,102895.66
2019-06-26T16:34:22.779Z,102899.80
2019-06-26T16:37:11.637Z,102902.95
2019-06-26T16:40:13.106Z,102911.41
2019-06-26T16:42:53.150Z,102913.38
2019-06-26T16:45:52.982Z,102903.16
2019-06-26T16:48:41.935Z,102901.73
2019-06-26T16:51:49.495Z,102902.92
2019-06-26T16:54:53.323Z,102907.92
2019-06-26T16:57:47.255Z,102904.94
2019-06-26T18:14:04.935Z,102922.38
2019-06-26T18:19:11.216Z,102924.54
2019-06-26T18:21:32.580Z,102928.53
2019-06-26T18:24:16.056Z,102916.98
2019-06-26T18:43:27.243Z,102932.98
2019-06-26T18:54:35.313Z,102942.73
2019-06-26T19:28:02.562Z,102970.50
2019-06-26T19:30:40.833Z,102968.28
2019-06-26T19:33:07.814Z,102963.36
2019-06-26T19:35:38.195Z,102966.98
2019-06-26T19:38:14.542Z,102974.27
2019-06-26T19:40:45.136Z,102975.98
2019-06-26T19:43:33.483Z,102981.25
2019-06-26T19:46:03.953Z,102985.98
2019-06-26T19:49:04.156Z,102983.30
2019-06-26T19:51:53.447Z,102991.14
2019-06-26T19:54:31.043Z,102986.88
2019-06-26T19:56:57.868Z,102998.02
2019-06-26T19:59:32.594Z,102992.25
2019-06-26T20:02:10.493Z,102985.17
2019-06-26T20:04:48.148Z,102990.12
2019-06-26T20:07:38.163Z,102999.14
2019-06-26T20:10:10.999Z,102999.45
2019-06-26T20:12:45.856Z,103010.67
2019-06-26T20:15:20.620Z,103016.22
2019-06-26T20:17:52.254Z,103011.58
2019-06-26T20:20:26.047Z,103010.12
2019-06-26T20:22:59.368Z,103015.34
2019-06-26T20:25:32.806Z,103014.11
2019-06-26T20:28:03.028Z,103014.45
2019-06-26T20:30:34.338Z,103010.89
2019-06-26T20:33:04.577Z,103008.72
2019-06-26T20:35:44.065Z,103014.61
2019-06-26T20:38:18.767Z,103013.48
2019-06-26T20:41:04.991Z,103021.06
2019-06-26T20:43:48.891Z,103022.27
2019-06-26T20:46:30.849Z,103021.70
2019-06-26T20:49:01.460Z,103019.81
2019-06-26T20:51:36.638Z,103016.27
2019-06-26T20:54:12.945Z,103019.23
2019-06-26T20:56:44.356Z,103021.77
2019-06-26T20:59:19.317Z,103023.64
2019-06-26T21:01:52.258Z,103027.37
2019-06-26T21:04:24.082Z,103022.27
2019-06-26T21:06:54.355Z,103024.34
2019-06-26T21:09:29.154Z,103023.20
2019-06-26T21:11:59.872Z,103020.89
2019-06-26T21:14:35.270Z,103020.43
2019-06-26T21:17:10.672Z,103018.08
2019-06-26T21:19:42.275Z,103026.87
2019-06-26T21:22:12.582Z,103023.52
2019-06-26T21:24:44.167Z,103031.86
2019-06-26T21:27:18.266Z,103035.66
2019-06-26T21:29:48.629Z,103037.17
2019-06-26T21:32:18.948Z,103042.02
2019-06-26T21:34:49.325Z,103028.02
2019-06-26T21:37:19.678Z,103037.23
2019-06-26T21:39:49.839Z,103042.36
2019-06-26T21:42:21.097Z,103041.91
2019-06-26T21:44:51.269Z,103036.80
2019-06-26T21:47:22.763Z,103042.60
2019-06-26T21:49:52.961Z,103040.88
2019-06-26T21:52:23.574Z,103046.17
2019-06-26T21:54:54.886Z,103043.48
2019-06-26T21:57:44.530Z,103051.36
2019-06-26T22:00:34.630Z,103042.33
2019-06-26T22:03:26.138Z,103051.30
2019-06-26T22:06:13.535Z,103055.28
2019-06-26T22:08:57.637Z,103045.74
2019-06-26T22:11:28.904Z,103054.64
2019-06-26T22:13:59.233Z,103052.84
2019-06-26T22:16:29.635Z,103055.60
2019-06-26T22:19:00.974Z,103051.27
2019-06-26T22:21:31.205Z,103056.44
2019-06-26T22:24:01.414Z,103053.86
2019-06-26T22:26:31.734Z,103062.30
2019-06-26T22:29:02.023Z,103058.44
2019-06-26T22:31:32.240Z,103063.29
2019-06-26T22:34:02.443Z,103070.44
2019-06-26T22:36:32.622Z,103067.02
2019-06-26T22:39:02.828Z,103069.61
2019-06-26T22:41:36.990Z,103071.57
2019-06-26T22:44:07.287Z,103070.13
2019-06-26T22:46:38.878Z,103072.38
2019-06-26T22:49:09.080Z,103077.34
2019-06-26T22:51:39.224Z,103083.20
2019-06-26T22:54:09.559Z,103073.38
2019-06-26T22:56:41.086Z,103072.10
2019-06-26T22:59:14.432Z,103066.27
2019-06-26T23:01:44.670Z,103067.67
2019-06-26T23:04:14.868Z,103072.81
2019-06-26T23:06:47.192Z,103079.91
2019-06-26T23:09:17.403Z,103080.95
2019-06-26T23:11:47.604Z,103078.57
2019-06-26T23:14:17.941Z,103088.79
2019-06-26T23:16:48.102Z,103087.67
2019-06-26T23:19:18.311Z,103095.64
2019-06-26T23:21:48.454Z,103083.02
2019-06-26T23:24:20.111Z,103081.60
2019-06-26T23:26:51.382Z,103075.39
2019-06-26T23:29:22.088Z,103077.20
2019-06-26T23:31:52.358Z,103075.74
2019-06-26T23:34:22.588Z,103081.30
2019-06-26T23:36:53.848Z,103072.41
2019-06-26T23:39:24.829Z,103074.83
2019-06-26T23:41:55.099Z,103071.46
2019-06-26T23:44:25.363Z,103068.41
2019-06-26T23:46:55.682Z,103073.80
2019-06-26T23:49:25.947Z,103071.59
2019-06-26T23:51:56.097Z,103069.94
2019-06-26T23:54:26.334Z,103070.59
2019-06-26T23:56:56.494Z,103067.23
2019-06-26T23:59:26.733Z,103070.80
